CheckWX is a tool to help pilots better visualize weather data.  It is not intended as a substitute for an official pre-flight weather briefing.

08:42:20 UTC

KFLP METAR
Marion County Regional Airport
Flippin, Arkansas, USA
Current

46 mins ago

KFLP 220756Z AUTO 05003KT 10SM OVC019 04/M01 A3016 RMK AO2 SLP217 T00391006
Observed
Feb-22 @ 07:56 UTC
Wind
  • 050° at 3 KTS
Visibility
10 SM
Flight Rules
MVFR
Cloud Levels
  • Overcast at 1,900' AGL
Temperature
C / 39°F
Dewpoint
-1°C / 30°F
Humidity
70%
Altimeter
30.16" Hg
Pressure
1021.7 hPa
Previous

2 hours ago

KFLP 220656Z AUTO 04003KT 10SM OVC021 04/M01 A3017 RMK AO2 SLP219 T00391011
Observed
Feb-22 @ 06:56 UTC
Wind
  • 040° at 3 KTS
Visibility
10 SM
Flight Rules
MVFR
Cloud Levels
  • Overcast at 2,100' AGL
Temperature
C / 39°F
Dewpoint
-1°C / 30°F
Humidity
70%
Altimeter
30.17" Hg
Pressure
1021.9 hPa
Previous

2 hours ago

KFLP 220620Z AUTO 05003KT 10SM BKN021 04/M01 A3017 RMK AO2
Observed
Feb-22 @ 06:20 UTC
Wind
  • 050° at 3 KTS
Visibility
10 SM
Flight Rules
MVFR
Cloud Levels
  • Broken at 2,100' AGL
Temperature
C / 39°F
Dewpoint
-1°C / 30°F
Humidity
70%
Altimeter
30.17" Hg
Pressure
1021.72 hPa